sensor_id;sensor_type;location;lat;lon;timestamp;pressure;altitude;pressure_sealevel;temperature;humidity
22605;BME280;11469;49.024;8.246;2022-07-29T00:00:57;100053.22;;;20.55;63.96
22605;BME280;11469;49.024;8.246;2022-07-29T00:03:22;100052.78;;;20.57;64.23
22605;BME280;11469;49.024;8.246;2022-07-29T00:05:48;100048.91;;;20.47;64.46
22605;BME280;11469;49.024;8.246;2022-07-29T00:08:13;100055.91;;;20.42;65.17
22605;BME280;11469;49.024;8.246;2022-07-29T00:10:41;100045.34;;;20.43;65.25
22605;BME280;11469;49.024;8.246;2022-07-29T00:13:06;100054.00;;;20.36;65.69
22605;BME280;11469;49.024;8.246;2022-07-29T00:15:31;100048.91;;;20.27;66.42
22605;BME280;11469;49.024;8.246;2022-07-29T00:17:57;100056.69;;;20.23;66.25
22605;BME280;11469;49.024;8.246;2022-07-29T00:20:22;100052.25;;;20.22;66.79
22605;BME280;11469;49.024;8.246;2022-07-29T00:22:47;100052.75;;;20.17;67.47
22605;BME280;11469;49.024;8.246;2022-07-29T00:25:13;100058.38;;;20.20;67.24
22605;BME280;11469;49.024;8.246;2022-07-29T00:27:39;100051.06;;;20.19;67.49
22605;BME280;11469;49.024;8.246;2022-07-29T00:30:05;100050.28;;;20.19;67.37
22605;BME280;11469;49.024;8.246;2022-07-29T00:32:31;100044.03;;;20.04;68.13
22605;BME280;11469;49.024;8.246;2022-07-29T00:34:56;100036.94;;;19.93;67.92
22605;BME280;11469;49.024;8.246;2022-07-29T00:37:40;100037.97;;;19.82;67.97
22605;BME280;11469;49.024;8.246;2022-07-29T00:40:06;100034.94;;;19.70;68.35
22605;BME280;11469;49.024;8.246;2022-07-29T00:42:50;100035.41;;;19.65;68.88
22605;BME280;11469;49.024;8.246;2022-07-29T00:45:16;100032.78;;;19.77;69.06
22605;BME280;11469;49.024;8.246;2022-07-29T00:47:42;100031.66;;;19.71;69.08
22605;BME280;11469;49.024;8.246;2022-07-29T00:50:10;100031.53;;;19.55;69.83
22605;BME280;11469;49.024;8.246;2022-07-29T00:52:37;100029.53;;;19.52;70.36
22605;BME280;11469;49.024;8.246;2022-07-29T00:55:03;100033.38;;;19.38;70.73
22605;BME280;11469;49.024;8.246;2022-07-29T00:57:29;100033.75;;;19.40;71.04
22605;BME280;11469;49.024;8.246;2022-07-29T00:59:54;100029.41;;;19.36;71.10
22605;BME280;11469;49.024;8.246;2022-07-29T01:02:21;100042.72;;;19.39;71.05
22605;BME280;11469;49.024;8.246;2022-07-29T01:04:46;100036.03;;;19.26;71.30
22605;BME280;11469;49.024;8.246;2022-07-29T01:07:12;100037.88;;;19.12;71.88
22605;BME280;11469;49.024;8.246;2022-07-29T01:09:38;100033.16;;;19.02;72.56
22605;BME280;11469;49.024;8.246;2022-07-29T01:12:04;100027.75;;;19.11;72.74
22605;BME280;11469;49.024;8.246;2022-07-29T01:14:30;100029.34;;;19.12;72.85
22605;BME280;11469;49.024;8.246;2022-07-29T01:17:10;100031.34;;;19.15;73.20
22605;BME280;11469;49.024;8.246;2022-07-29T01:30:26;100027.91;;;19.28;73.45
22605;BME280;11469;49.024;8.246;2022-07-29T01:33:01;100018.72;;;19.16;74.18
22605;BME280;11469;49.024;8.246;2022-07-29T01:35:38;100018.84;;;19.09;74.09
22605;BME280;11469;49.024;8.246;2022-07-29T01:38:13;100027.84;;;19.04;74.34
22605;BME280;11469;49.024;8.246;2022-07-29T01:40:48;100031.44;;;19.08;74.42
22605;BME280;11469;49.024;8.246;2022-07-29T01:43:17;100035.06;;;19.09;73.93
22605;BME280;11469;49.024;8.246;2022-07-29T01:45:53;100032.72;;;19.04;74.11
22605;BME280;11469;49.024;8.246;2022-07-29T01:48:24;100025.16;;;18.94;74.36
22605;BME280;11469;49.024;8.246;2022-07-29T01:51:02;100030.41;;;18.95;74.27
22605;BME280;11469;49.024;8.246;2022-07-29T01:53:34;100028.75;;;18.98;74.30
22605;BME280;11469;49.024;8.246;2022-07-29T01:56:02;100028.41;;;18.92;74.30
22605;BME280;11469;49.024;8.246;2022-07-29T01:58:29;100036.50;;;18.94;74.28
22605;BME280;11469;49.024;8.246;2022-07-29T02:00:57;100033.75;;;18.90;74.37
22605;BME280;11469;49.024;8.246;2022-07-29T02:03:23;100042.19;;;18.94;74.28
22605;BME280;11469;49.024;8.246;2022-07-29T02:05:52;100033.28;;;18.92;74.50
22605;BME280;11469;49.024;8.246;2022-07-29T02:08:18;100038.63;;;18.89;74.51
22605;BME280;11469;49.024;8.246;2022-07-29T02:10:45;100040.28;;;18.87;74.59
22605;BME280;11469;49.024;8.246;2022-07-29T02:13:13;100040.72;;;18.85;74.71
22605;BME280;11469;49.024;8.246;2022-07-29T02:15:41;100044.81;;;18.81;74.68
22605;BME280;11469;49.024;8.246;2022-07-29T02:18:10;100037.50;;;18.83;74.89
22605;BME280;11469;49.024;8.246;2022-07-29T02:20:39;100043.16;;;18.83;74.82
22605;BME280;11469;49.024;8.246;2022-07-29T02:23:07;100043.13;;;18.87;74.40
22605;BME280;11469;49.024;8.246;2022-07-29T02:25:33;100035.44;;;18.84;74.52
22605;BME280;11469;49.024;8.246;2022-07-29T02:27:59;100036.69;;;18.83;74.54
22605;BME280;11469;49.024;8.246;2022-07-29T02:30:27;100048.03;;;18.83;74.35
22605;BME280;11469;49.024;8.246;2022-07-29T02:32:54;100039.44;;;18.90;74.10
22605;BME280;11469;49.024;8.246;2022-07-29T02:35:21;100039.53;;;18.83;74.18
22605;BME280;11469;49.024;8.246;2022-07-29T02:37:48;100039.28;;;18.70;74.77
22605;BME280;11469;49.024;8.246;2022-07-29T02:40:38;100040.56;;;18.66;75.15
22605;BME280;11469;49.024;8.246;2022-07-29T02:43:06;100039.06;;;18.54;75.62
22605;BME280;11469;49.024;8.246;2022-07-29T02:45:33;100041.59;;;18.45;76.06
22605;BME280;11469;49.024;8.246;2022-07-29T02:48:05;100049.00;;;18.39;76.59
22605;BME280;11469;49.024;8.246;2022-07-29T02:50:44;100047.75;;;18.40;76.75
22605;BME280;11469;49.024;8.246;2022-07-29T02:53:15;100041.31;;;18.36;76.51
22605;BME280;11469;49.024;8.246;2022-07-29T02:55:51;100041.81;;;18.27;76.72
22605;BME280;11469;49.024;8.246;2022-07-29T02:58:33;100038.53;;;18.32;76.42
22605;BME280;11469;49.024;8.246;2022-07-29T03:01:16;100039.41;;;18.26;76.89
22605;BME280;11469;49.024;8.246;2022-07-29T03:03:46;100033.75;;;18.26;76.71
22605;BME280;11469;49.024;8.246;2022-07-29T03:06:15;100038.19;;;18.27;76.67
22605;BME280;11469;49.024;8.246;2022-07-29T03:08:42;100050.75;;;18.26;76.46
22605;BME280;11469;49.024;8.246;2022-07-29T03:11:09;100039.78;;;18.28;76.56
22605;BME280;11469;49.024;8.246;2022-07-29T03:13:35;100046.72;;;18.23;76.71
22605;BME280;11469;49.024;8.246;2022-07-29T03:16:01;100051.25;;;18.17;76.63
22605;BME280;11469;49.024;8.246;2022-07-29T03:18:27;100048.03;;;18.15;76.55
22605;BME280;11469;49.024;8.246;2022-07-29T03:20:53;100053.31;;;18.13;76.55
22605;BME280;11469;49.024;8.246;2022-07-29T03:23:20;100056.53;;;18.15;76.46
22605;BME280;11469;49.024;8.246;2022-07-29T03:25:46;100061.44;;;18.11;76.62
22605;BME280;11469;49.024;8.246;2022-07-29T03:28:12;100064.66;;;18.13;76.37
22605;BME280;11469;49.024;8.246;2022-07-29T03:30:37;100063.06;;;18.12;76.20
22605;BME280;11469;49.024;8.246;2022-07-29T03:33:02;100058.25;;;18.05;76.43
22605;BME280;11469;49.024;8.246;2022-07-29T03:35:28;100054.75;;;17.94;76.80
22605;BME280;11469;49.024;8.246;2022-07-29T03:37:54;100062.38;;;17.97;76.86
22605;BME280;11469;49.024;8.246;2022-07-29T03:40:24;100060.41;;;17.94;76.77
22605;BME280;11469;49.024;8.246;2022-07-29T03:42:52;100064.88;;;17.95;76.79
22605;BME280;11469;49.024;8.246;2022-07-29T03:45:20;100058.03;;;17.89;76.74
22605;BME280;11469;49.024;8.246;2022-07-29T03:47:52;100065.34;;;17.86;76.77
22605;BME280;11469;49.024;8.246;2022-07-29T03:50:19;100069.84;;;17.80;77.13
22605;BME280;11469;49.024;8.246;2022-07-29T03:52:47;100072.28;;;17.82;77.01
22605;BME280;11469;49.024;8.246;2022-07-29T03:55:14;100072.31;;;17.78;77.13
22605;BME280;11469;49.024;8.246;2022-07-29T03:57:39;100066.66;;;17.75;76.86
22605;BME280;11469;49.024;8.246;2022-07-29T04:00:06;100068.31;;;17.72;76.56
22605;BME280;11469;49.024;8.246;2022-07-29T04:02:32;100067.53;;;17.68;76.65
22605;BME280;11469;49.024;8.246;2022-07-29T04:04:59;100072.81;;;17.63;76.79
22605;BME280;11469;49.024;8.246;2022-07-29T04:07:24;100067.97;;;17.59;76.87
22605;BME280;11469;49.024;8.246;2022-07-29T04:09:50;100067.59;;;17.57;76.46
22605;BME280;11469;49.024;8.246;2022-07-29T04:12:15;100070.00;;;17.59;76.13
22605;BME280;11469;49.024;8.246;2022-07-29T04:14:41;100071.63;;;17.60;76.15
22605;BME280;11469;49.024;8.246;2022-07-29T04:17:06;100080.09;;;17.64;75.89
22605;BME280;11469;49.024;8.246;2022-07-29T04:19:32;100078.47;;;17.63;75.34
22605;BME280;11469;49.024;8.246;2022-07-29T04:21:58;100074.00;;;17.69;75.37
22605;BME280;11469;49.024;8.246;2022-07-29T04:24:24;100088.59;;;17.67;75.03
22605;BME280;11469;49.024;8.246;2022-07-29T04:26:50;100080.88;;;17.71;74.23
22605;BME280;11469;49.024;8.246;2022-07-29T04:29:15;100089.34;;;17.75;74.03
22605;BME280;11469;49.024;8.246;2022-07-29T04:31:41;100087.72;;;17.74;74.10
22605;BME280;11469;49.024;8.246;2022-07-29T04:34:07;100083.63;;;17.78;74.18
22605;BME280;11469;49.024;8.246;2022-07-29T04:36:33;100089.34;;;17.75;74.03
22605;BME280;11469;49.024;8.246;2022-07-29T04:38:58;100096.22;;;17.74;74.12
22605;BME280;11469;49.024;8.246;2022-07-29T04:41:24;100094.59;;;17.76;74.06
22605;BME280;11469;49.024;8.246;2022-07-29T04:43:49;100087.72;;;17.74;73.91
22605;BME280;11469;49.024;8.246;2022-07-29T04:46:15;100097.81;;;17.78;73.85
22605;BME280;11469;49.024;8.246;2022-07-29T04:48:40;100096.16;;;17.81;73.50
22605;BME280;11469;49.024;8.246;2022-07-29T04:51:06;100096.50;;;17.90;73.15
22605;BME280;11469;49.024;8.246;2022-07-29T04:53:32;100101.22;;;18.04;71.85
22605;BME280;11469;49.024;8.246;2022-07-29T04:55:57;100099.84;;;18.19;70.82
22605;BME280;11469;49.024;8.246;2022-07-29T04:58:22;100092.50;;;18.25;69.97
22605;BME280;11469;49.024;8.246;2022-07-29T05:00:49;100097.75;;;18.27;69.73
22605;BME280;11469;49.024;8.246;2022-07-29T05:03:14;100097.28;;;18.32;69.79
22605;BME280;11469;49.024;8.246;2022-07-29T05:05:39;100104.22;;;18.27;70.15
22605;BME280;11469;49.024;8.246;2022-07-29T05:08:05;100105.88;;;18.24;69.72
22605;BME280;11469;49.024;8.246;2022-07-29T05:10:31;100100.22;;;18.21;68.50
22605;BME280;11469;49.024;8.246;2022-07-29T05:12:56;100101.81;;;18.26;68.70
22605;BME280;11469;49.024;8.246;2022-07-29T05:15:22;100105.75;;;18.35;68.96
22605;BME280;11469;49.024;8.246;2022-07-29T05:17:47;100102.50;;;18.37;69.05
22605;BME280;11469;49.024;8.246;2022-07-29T05:20:12;100108.94;;;18.41;68.59
22605;BME280;11469;49.024;8.246;2022-07-29T05:22:38;100101.56;;;18.47;68.55
22605;BME280;11469;49.024;8.246;2022-07-29T05:25:04;100097.41;;;18.55;67.65
22605;BME280;11469;49.024;8.246;2022-07-29T05:27:29;100107.06;;;18.65;67.34
22605;BME280;11469;49.024;8.246;2022-07-29T05:29:54;100105.25;;;18.81;67.14
22605;BME280;11469;49.024;8.246;2022-07-29T05:32:20;100108.63;;;19.00;65.65
22605;BME280;11469;49.024;8.246;2022-07-29T05:34:45;100099.81;;;19.21;65.35
22605;BME280;11469;49.024;8.246;2022-07-29T05:37:11;100117.28;;;19.46;64.12
22605;BME280;11469;49.024;8.246;2022-07-29T05:39:38;100122.94;;;19.77;64.24
22605;BME280;11469;49.024;8.246;2022-07-29T05:42:08;100118.72;;;20.08;61.83
22605;BME280;11469;49.024;8.246;2022-07-29T05:44:39;100124.69;;;20.37;60.70
22605;BME280;11469;49.024;8.246;2022-07-29T05:47:05;100132.06;;;20.58;58.61
22605;BME280;11469;49.024;8.246;2022-07-29T05:49:31;100132.53;;;20.76;58.36
22605;BME280;11469;49.024;8.246;2022-07-29T05:51:57;100127.16;;;20.98;57.87
22605;BME280;11469;49.024;8.246;2022-07-29T05:54:23;100142.28;;;21.15;55.98
22605;BME280;11469;49.024;8.246;2022-07-29T05:56:48;100137.81;;;21.14;56.82
22605;BME280;11469;49.024;8.246;2022-07-29T05:59:13;100138.69;;;21.11;56.92
22605;BME280;11469;49.024;8.246;2022-07-29T06:01:39;100139.06;;;21.13;56.99
22605;BME280;11469;49.024;8.246;2022-07-29T06:04:05;100140.72;;;21.30;56.94
22605;BME280;11469;49.024;8.246;2022-07-29T06:06:32;100147.50;;;21.36;56.29
22605;BME280;11469;49.024;8.246;2022-07-29T06:08:57;100149.31;;;21.46;55.30
22605;BME280;11469;49.024;8.246;2022-07-29T06:11:22;100145.69;;;21.78;54.50
22605;BME280;11469;49.024;8.246;2022-07-29T06:13:48;100155.25;;;21.88;53.68
22605;BME280;11469;49.024;8.246;2022-07-29T06:16:13;100167.09;;;21.86;54.54
22605;BME280;11469;49.024;8.246;2022-07-29T06:18:38;100170.66;;;21.91;53.96
22605;BME280;11469;49.024;8.246;2022-07-29T06:21:07;100167.09;;;21.86;54.54
22605;BME280;11469;49.024;8.246;2022-07-29T06:23:33;100170.13;;;21.96;54.55
22605;BME280;11469;49.024;8.246;2022-07-29T06:25:59;100171.72;;;21.80;54.40
22605;BME280;11469;49.024;8.246;2022-07-29T06:28:24;100171.31;;;21.98;54.76
22605;BME280;11469;49.024;8.246;2022-07-29T06:30:51;100164.91;;;22.10;54.91
22605;BME280;11469;49.024;8.246;2022-07-29T06:33:17;100159.97;;;22.27;55.30
22605;BME280;11469;49.024;8.246;2022-07-29T06:35:43;100161.31;;;22.39;54.41
22605;BME280;11469;49.024;8.246;2022-07-29T06:38:10;100159.25;;;22.39;55.07
22605;BME280;11469;49.024;8.246;2022-07-29T06:40:36;100170.50;;;22.46;54.99
22605;BME280;11469;49.024;8.246;2022-07-29T06:43:20;100168.78;;;22.49;55.15
22605;BME280;11469;49.024;8.246;2022-07-29T06:45:45;100170.13;;;22.44;55.09
22605;BME280;11469;49.024;8.246;2022-07-29T06:48:11;100161.22;;;22.42;54.39
22605;BME280;11469;49.024;8.246;2022-07-29T06:50:36;100167.38;;;22.41;54.63
22605;BME280;11469;49.024;8.246;2022-07-29T06:53:03;100175.31;;;22.49;55.21
22605;BME280;11469;49.024;8.246;2022-07-29T06:55:28;100173.66;;;22.65;54.88
22605;BME280;11469;49.024;8.246;2022-07-29T06:57:53;100175.16;;;22.69;54.76
22605;BME280;11469;49.024;8.246;2022-07-29T07:00:19;100184.97;;;22.84;55.09
22605;BME280;11469;49.024;8.246;2022-07-29T07:02:44;100175.75;;;22.93;54.30
22605;BME280;11469;49.024;8.246;2022-07-29T07:05:10;100174.63;;;23.03;54.27
22605;BME280;11469;49.024;8.246;2022-07-29T07:07:35;100178.66;;;23.06;54.28
22605;BME280;11469;49.024;8.246;2022-07-29T07:10:01;100181.59;;;23.02;54.95
22605;BME280;11469;49.024;8.246;2022-07-29T07:12:26;100183.22;;;23.16;54.13
22605;BME280;11469;49.024;8.246;2022-07-29T07:14:51;100178.25;;;23.33;54.35
22605;BME280;11469;49.024;8.246;2022-07-29T07:17:17;100177.84;;;23.72;53.05
22605;BME280;11469;49.024;8.246;2022-07-29T07:19:42;100184.38;;;23.86;52.25
22605;BME280;11469;49.024;8.246;2022-07-29T07:22:07;100188.16;;;24.08;51.89
22605;BME280;11469;49.024;8.246;2022-07-29T07:24:33;100184.69;;;24.38;52.01
22605;BME280;11469;49.024;8.246;2022-07-29T07:26:58;100179.59;;;24.55;50.93
22605;BME280;11469;49.024;8.246;2022-07-29T07:29:24;100193.56;;;24.88;50.53
22605;BME280;11469;49.024;8.246;2022-07-29T07:31:49;100187.22;;;24.71;51.00
22605;BME280;11469;49.024;8.246;2022-07-29T07:34:14;100194.38;;;24.54;51.21
22605;BME280;11469;49.024;8.246;2022-07-29T07:36:40;100194.06;;;24.39;51.51
22605;BME280;11469;49.024;8.246;2022-07-29T07:39:05;100191.78;;;24.34;52.18
22605;BME280;11469;49.024;8.246;2022-07-29T07:41:31;100196.91;;;24.52;51.54
22605;BME280;11469;49.024;8.246;2022-07-29T07:43:56;100184.44;;;24.45;51.60
22605;BME280;11469;49.024;8.246;2022-07-29T07:46:22;100191.34;;;24.70;51.72
22605;BME280;11469;49.024;8.246;2022-07-29T07:48:47;100191.59;;;24.63;50.74
22605;BME280;11469;49.024;8.246;2022-07-29T07:51:13;100181.00;;;24.72;50.36
22605;BME280;11469;49.024;8.246;2022-07-29T07:53:38;100190.72;;;25.09;49.30
22605;BME280;11469;49.024;8.246;2022-07-29T07:56:03;100187.91;;;25.40;49.63
22605;BME280;11469;49.024;8.246;2022-07-29T07:58:31;100195.78;;;25.27;49.16
22605;BME280;11469;49.024;8.246;2022-07-29T08:00:56;100197.66;;;25.43;48.36
22605;BME280;11469;49.024;8.246;2022-07-29T08:03:22;100200.81;;;25.67;47.71
22605;BME280;11469;49.024;8.246;2022-07-29T08:05:47;100189.88;;;25.74;47.21
22605;BME280;11469;49.024;8.246;2022-07-29T08:08:13;100194.31;;;25.44;47.64
22605;BME280;11469;49.024;8.246;2022-07-29T08:10:38;100191.38;;;25.13;48.32
22605;BME280;11469;49.024;8.246;2022-07-29T08:13:21;100184.50;;;24.89;48.83
22605;BME280;11469;49.024;8.246;2022-07-29T08:15:47;100192.53;;;25.16;48.61
22605;BME280;11469;49.024;8.246;2022-07-29T08:18:23;100188.66;;;25.32;47.73
22605;BME280;11469;49.024;8.246;2022-07-29T08:20:48;100192.25;;;25.23;48.38
22605;BME280;11469;49.024;8.246;2022-07-29T08:23:13;100197.84;;;25.49;48.02
22605;BME280;11469;49.024;8.246;2022-07-29T08:25:39;100199.41;;;25.71;47.59
22605;BME280;11469;49.024;8.246;2022-07-29T08:28:05;100202.84;;;25.88;46.88
22605;BME280;11469;49.024;8.246;2022-07-29T08:30:31;100203.22;;;26.08;47.63
22605;BME280;11469;49.024;8.246;2022-07-29T08:32:57;100207.19;;;26.51;47.43
22605;BME280;11469;49.024;8.246;2022-07-29T08:35:24;100196.53;;;26.70;46.33
22605;BME280;11469;49.024;8.246;2022-07-29T08:37:50;100198.44;;;26.64;46.53
22605;BME280;11469;49.024;8.246;2022-07-29T08:40:15;100206.41;;;26.60;46.52
22605;BME280;11469;49.024;8.246;2022-07-29T08:42:41;100205.44;;;26.35;45.94
22605;BME280;11469;49.024;8.246;2022-07-29T08:45:07;100196.19;;;26.40;46.59
22605;BME280;11469;49.024;8.246;2022-07-29T08:47:33;100197.56;;;26.27;45.92
22605;BME280;11469;49.024;8.246;2022-07-29T08:50:02;100205.75;;;26.37;45.94
22605;BME280;11469;49.024;8.246;2022-07-29T08:52:29;100212.78;;;26.36;45.05
22605;BME280;11469;49.024;8.246;2022-07-29T08:54:57;100210.78;;;26.24;44.21
22605;BME280;11469;49.024;8.246;2022-07-29T08:57:24;100206.56;;;26.07;44.36
22605;BME280;11469;49.024;8.246;2022-07-29T08:59:51;100213.56;;;25.97;45.18
22605;BME280;11469;49.024;8.246;2022-07-29T09:02:22;100206.09;;;26.08;45.62
22605;BME280;11469;49.024;8.246;2022-07-29T09:04:48;100210.84;;;26.33;44.52
22605;BME280;11469;49.024;8.246;2022-07-29T09:07:18;100199.53;;;26.48;43.89
22605;BME280;11469;49.024;8.246;2022-07-29T09:09:44;100201.94;;;26.59;44.04
22605;BME280;11469;49.024;8.246;2022-07-29T09:12:10;100204.06;;;26.86;44.02
22605;BME280;11469;49.024;8.246;2022-07-29T09:14:39;100206.63;;;27.02;43.47
22605;BME280;11469;49.024;8.246;2022-07-29T09:17:05;100209.16;;;26.82;42.88
22605;BME280;11469;49.024;8.246;2022-07-29T09:19:34;100204.19;;;26.73;42.64
22605;BME280;11469;49.024;8.246;2022-07-29T09:22:04;100199.09;;;26.77;43.12
22605;BME280;11469;49.024;8.246;2022-07-29T09:26:59;100208.66;;;26.74;43.59
22605;BME280;11469;49.024;8.246;2022-07-29T09:29:25;100197.97;;;26.84;42.39
22605;BME280;11469;49.024;8.246;2022-07-29T09:31:52;100199.59;;;26.94;43.13
22605;BME280;11469;49.024;8.246;2022-07-29T09:34:26;100196.56;;;27.06;42.22
22605;BME280;11469;49.024;8.246;2022-07-29T09:36:53;100185.22;;;27.03;41.82
22605;BME280;11469;49.024;8.246;2022-07-29T09:39:32;100193.84;;;27.12;42.26
22605;BME280;11469;49.024;8.246;2022-07-29T09:42:00;100181.38;;;27.06;41.74
22605;BME280;11469;49.024;8.246;2022-07-29T09:44:26;100187.75;;;27.19;42.66
22605;BME280;11469;49.024;8.246;2022-07-29T09:46:59;100190.25;;;27.44;42.06
22605;BME280;11469;49.024;8.246;2022-07-29T09:49:31;100186.47;;;27.29;41.95
22605;BME280;11469;49.024;8.246;2022-07-29T09:52:05;100200.06;;;27.29;42.40
22605;BME280;11469;49.024;8.246;2022-07-29T09:54:31;100197.50;;;27.31;41.79
22605;BME280;11469;49.024;8.246;2022-07-29T09:57:05;100202.75;;;27.32;42.23
22605;BME280;11469;49.024;8.246;2022-07-29T09:59:31;100193.91;;;27.45;41.82
22605;BME280;11469;49.024;8.246;2022-07-29T10:01:57;100189.59;;;27.50;41.05
22605;BME280;11469;49.024;8.246;2022-07-29T10:04:22;100194.09;;;27.60;40.78
22605;BME280;11469;49.024;8.246;2022-07-29T10:07:02;100182.84;;;27.71;40.48
22605;BME280;11469;49.024;8.246;2022-07-29T10:09:29;100191.28;;;27.84;41.32
22605;BME280;11469;49.024;8.246;2022-07-29T10:12:06;100183.28;;;27.88;40.09
22605;BME280;11469;49.024;8.246;2022-07-29T10:14:32;100190.13;;;27.90;40.43
22605;BME280;11469;49.024;8.246;2022-07-29T10:17:03;100177.63;;;27.93;40.52
22605;BME280;11469;49.024;8.246;2022-07-29T10:19:30;100186.25;;;27.93;41.04
22605;BME280;11469;49.024;8.246;2022-07-29T10:21:58;100193.06;;;27.81;40.53
22605;BME280;11469;49.024;8.246;2022-07-29T10:24:27;100185.13;;;28.00;41.16
22605;BME280;11469;49.024;8.246;2022-07-29T10:26:59;100174.44;;;27.91;41.05
22605;BME280;11469;49.024;8.246;2022-07-29T10:29:25;100172.91;;;27.81;40.65
22605;BME280;11469;49.024;8.246;2022-07-29T10:34:57;100168.94;;;28.02;40.83
22605;BME280;11469;49.024;8.246;2022-07-29T10:37:45;100157.19;;;28.15;41.05
22605;BME280;11469;49.024;8.246;2022-07-29T10:43:21;100154.28;;;28.48;39.02
22605;BME280;11469;49.024;8.246;2022-07-29T10:45:48;100139.94;;;28.63;39.10
22605;BME280;11469;49.024;8.246;2022-07-29T10:48:14;100147.09;;;28.67;39.06
22605;BME280;11469;49.024;8.246;2022-07-29T10:51:12;100145.38;;;28.61;38.49
22605;BME280;11469;49.024;8.246;2022-07-29T10:53:50;100145.50;;;28.66;38.82
22605;BME280;11469;49.024;8.246;2022-07-29T10:56:27;100148.63;;;28.78;38.98
22605;BME280;11469;49.024;8.246;2022-07-29T11:01:43;100141.72;;;28.99;40.00
22605;BME280;11469;49.024;8.246;2022-07-29T11:04:08;100137.25;;;29.27;38.49
22605;BME280;11469;49.024;8.246;2022-07-29T11:09:30;100148.81;;;29.27;38.90
22605;BME280;11469;49.024;8.246;2022-07-29T11:11:56;100140.63;;;29.40;38.72
22605;BME280;11469;49.024;8.246;2022-07-29T11:17:18;100137.00;;;29.90;38.30
22605;BME280;11469;49.024;8.246;2022-07-29T11:19:43;100133.09;;;30.28;36.85
22605;BME280;11469;49.024;8.246;2022-07-29T11:22:11;100134.56;;;30.18;35.93
22605;BME280;11469;49.024;8.246;2022-07-29T11:24:37;100130.00;;;29.96;36.55
22605;BME280;11469;49.024;8.246;2022-07-29T11:29:54;100131.81;;;29.94;36.43
22605;BME280;11469;49.024;8.246;2022-07-29T11:32:21;100139.38;;;30.06;35.56
22605;BME280;11469;49.024;8.246;2022-07-29T11:34:48;100137.50;;;30.03;35.79
22605;BME280;11469;49.024;8.246;2022-07-29T11:37:17;100134.81;;;29.85;36.49
22605;BME280;11469;49.024;8.246;2022-07-29T11:47:24;100138.84;;;29.73;36.92
22605;BME280;11469;49.024;8.246;2022-07-29T11:49:51;100137.53;;;29.74;36.58
22605;BME280;11469;49.024;8.246;2022-07-29T11:52:18;100132.19;;;29.66;36.13
22605;BME280;11469;49.024;8.246;2022-07-29T11:54:44;100132.28;;;29.72;36.20
22605;BME280;11469;49.024;8.246;2022-07-29T11:57:09;100137.00;;;30.04;36.55
22605;BME280;11469;49.024;8.246;2022-07-29T11:59:42;100131.00;;;30.28;34.70
22605;BME280;11469;49.024;8.246;2022-07-29T12:02:08;100144.97;;;30.50;33.86
22605;BME280;11469;49.024;8.246;2022-07-29T12:04:51;100131.03;;;30.69;33.25
22605;BME280;11469;49.024;8.246;2022-07-29T12:07:17;100141.19;;;30.85;33.22
22605;BME280;11469;49.024;8.246;2022-07-29T12:09:50;100141.34;;;30.76;33.27
22605;BME280;11469;49.024;8.246;2022-07-29T12:12:16;100142.00;;;30.85;32.58
22605;BME280;11469;49.024;8.246;2022-07-29T12:14:42;100140.25;;;30.93;32.33
22605;BME280;11469;49.024;8.246;2022-07-29T12:17:28;100138.75;;;30.78;33.12
22605;BME280;11469;49.024;8.246;2022-07-29T12:19:56;100145.75;;;30.91;33.20
22605;BME280;11469;49.024;8.246;2022-07-29T12:22:41;100141.03;;;30.94;32.96
22605;BME280;11469;49.024;8.246;2022-07-29T12:25:12;100133.25;;;30.80;32.49
22605;BME280;11469;49.024;8.246;2022-07-29T12:27:39;100131.25;;;30.65;32.94
22605;BME280;11469;49.024;8.246;2022-07-29T12:30:08;100147.47;;;30.57;33.57
22605;BME280;11469;49.024;8.246;2022-07-29T12:32:42;100130.91;;;30.58;33.33
22605;BME280;11469;49.024;8.246;2022-07-29T12:35:18;100136.72;;;30.43;33.04
22605;BME280;11469;49.024;8.246;2022-07-29T12:37:46;100132.38;;;30.53;33.18
22605;BME280;11469;49.024;8.246;2022-07-29T12:40:17;100128.38;;;30.65;33.54
22605;BME280;11469;49.024;8.246;2022-07-29T12:45:30;100136.06;;;30.13;32.59
22605;BME280;11469;49.024;8.246;2022-07-29T12:47:56;100128.41;;;30.30;32.84
22605;BME280;11469;49.024;8.246;2022-07-29T12:50:22;100133.53;;;30.41;32.66
22605;BME280;11469;49.024;8.246;2022-07-29T12:52:48;100134.38;;;30.62;32.69
22605;BME280;11469;49.024;8.246;2022-07-29T12:55:13;100136.53;;;30.67;33.38
22605;BME280;11469;49.024;8.246;2022-07-29T12:57:50;100131.09;;;30.54;32.38
22605;BME280;11469;49.024;8.246;2022-07-29T13:00:22;100133.44;;;30.71;32.80
22605;BME280;11469;49.024;8.246;2022-07-29T13:02:55;100136.69;;;30.58;33.09
22605;BME280;11469;49.024;8.246;2022-07-29T13:05:21;100129.69;;;30.29;33.53
22605;BME280;11469;49.024;8.246;2022-07-29T13:07:47;100131.91;;;29.99;33.19
22605;BME280;11469;49.024;8.246;2022-07-29T13:10:21;100140.25;;;29.97;33.57
22605;BME280;11469;49.024;8.246;2022-07-29T13:15:30;100136.94;;;30.40;33.83
22605;BME280;11469;49.024;8.246;2022-07-29T13:17:56;100146.69;;;30.42;33.23
22605;BME280;11469;49.024;8.246;2022-07-29T13:20:24;100157.53;;;30.47;33.03
22605;BME280;11469;49.024;8.246;2022-07-29T13:22:50;100153.19;;;30.37;33.11
22605;BME280;11469;49.024;8.246;2022-07-29T13:25:27;100151.03;;;30.52;33.05
22605;BME280;11469;49.024;8.246;2022-07-29T13:27:53;100157.41;;;30.56;32.01
22605;BME280;11469;49.024;8.246;2022-07-29T13:30:19;100156.97;;;30.23;32.04
22605;BME280;11469;49.024;8.246;2022-07-29T13:32:45;100159.56;;;30.21;31.95
22605;BME280;11469;49.024;8.246;2022-07-29T13:35:12;100150.34;;;30.02;31.32
22605;BME280;11469;49.024;8.246;2022-07-29T13:37:38;100147.75;;;30.04;32.93